HSSS Airport Information

Runway Information
Runway 18 Length 9751 ft width 148 ft
Elevation 1265 ft Threshold 0 ft Heading 177
Runway 36 Length 9751 ft Width 148 ft
Elevation 1260 ft Threshold 0 ft Heading 357
Airport Frequencies
Type APP Name Khartoum A Frequency 124.7 MHZ
Type EMR Name FIRE Frequency 121.9 MHZ
Type North Area Name North Sect Frequency 125.4 MHZ
Type South Area Name South Sect Frequency 127.3 MHZ
Type TWR Name Khartoum T Frequency 119.2 MHZ
Airport Navaids
Type VOR-DME Name Khartoum Frequency 112100 KHZ
Airport Weather Information & NOTAM
ADDS - METARS form results

(1850 UTC 28 January 2020)
Data provider http://aviationweather.gov/metar/data/
 
METAR text: HSSS 281830Z 33009KT CAVOK 25/M01 Q1016 NOSIG
Conditions at: HSSS (KHARTOUM (CIV/MI, SD) observed 1830 UTC 28 January 2020
Temperature: 25.0°C (77°F)
Dewpoint: -1.0°C (30°F) [RH = 18%]
Pressure (altimeter): 30.00 inches Hg (1016.0 mb)
Winds: from the NNW (330 degrees) at 10 MPH (9 knots; 4.6 m/s)
Visibility: 6 or more miles (10+ km)
Ceiling: ceiling and visibility are OK
Clouds: unknown
Weather: no significant weather observed at this time

METAR text: HSSS 281800Z 33007KT CAVOK 25/M01 Q1015 NOSIG
Conditions at: HSSS (KHARTOUM (CIV/MI, SD) observed 1800 UTC 28 January 2020
Temperature: 25.0°C (77°F)
Dewpoint: -1.0°C (30°F) [RH = 18%]
Pressure (altimeter): 29.97 inches Hg (1015.0 mb)
Winds: from the NNW (330 degrees) at 8 MPH (7 knots; 3.6 m/s)
Visibility: 6 or more miles (10+ km)
Ceiling: ceiling and visibility are OK
Clouds: unknown
Weather: no significant weather observed at this time

Forecast for: HSSS (KHARTOUM (CIV/MI, SD)
Text: HSSS 281700Z 2818/2924 36008G20KT CAVOK
Forecast period: 1800 UTC 28 January 2020 to 0000 UTC 30 January 2020
Forecast type: FROM: standard forecast or significant change
Winds: from the N (360 degrees) at 9 MPH (8 knots; 4.1 m/s)
gusting to 23 MPH (20 knots; 10.3 m/s)
Visibility: 6 or more miles 10+ km)
Ceiling: unknown
Clouds: missing
Weather: NSW  (no significant weather)